Time;durP1;ratioP1;P1;durP2;ratioP2;P2;SDS_P1;SDS_P2;PMS_P1;PMS_P2;Temp;Humidity;BMP_temperature;BMP_pressure;BME280_temperature;BME280_humidity;BME280_pressure;Samples;Min_cycle;Max_cycle;Signal;HPM_P1;HPM_P2
2021/11/25 00:00:17;;;;;;;47.93;29.77;;;;;;;0.54;77.64;99154.53;2256523;79;20956;-83
2021/11/25 00:03:20;;;;;;;142.97;32.27;;;;;;;0.50;77.63;99150.02;2233098;79;20972;-83
2021/11/25 00:06:21;;;;;;;44.63;27.53;;;;;;;0.44;77.71;99163.41;2255474;79;20964;-83
2021/11/25 00:09:21;;;;;;;48.70;27.47;;;;;;;0.39;77.49;99161.38;2254690;79;21007;-84
2021/11/25 00:12:22;;;;;;;38.17;24.20;;;;;;;0.32;77.60;99156.29;2254765;79;20959;-83
2021/11/25 00:15:23;;;;;;;42.50;23.67;;;;;;;0.28;77.78;99159.08;2254401;79;20975;-82
2021/11/25 00:18:23;;;;;;;40.70;23.30;;;;;;;0.26;77.99;99162.36;2254545;79;20983;-83
2021/11/25 00:21:24;;;;;;;43.13;21.87;;;;;;;0.21;77.78;99155.68;2254706;79;20956;-82
2021/11/25 00:24:24;;;;;;;41.47;23.20;;;;;;;0.15;77.83;99153.16;2254695;79;20967;-82
2021/11/25 00:27:25;;;;;;;37.37;21.60;;;;;;;0.09;77.71;99154.09;2254729;79;21442;-83
2021/11/25 00:30:31;;;;;;;40.17;21.80;;;;;;;0.03;77.67;99147.33;2254617;79;20995;-83
2021/11/25 00:33:32;;;;;;;37.40;21.17;;;;;;;-0.06;77.75;99144.68;2254936;79;20957;-83
2021/11/25 00:36:34;;;;;;;35.43;19.87;;;;;;;-0.09;78.05;99138.48;2254669;79;20987;-82
2021/11/25 00:39:34;;;;;;;36.77;20.90;;;;;;;-0.13;78.12;99136.14;2255229;79;21046;-83
2021/11/25 00:42:35;;;;;;;43.57;20.77;;;;;;;-0.17;78.19;99131.63;2255156;79;21390;-83
2021/11/25 00:45:38;;;;;;;43.73;22.73;;;;;;;-0.21;78.03;99129.68;2255121;79;21007;-83
2021/11/25 00:48:39;;;;;;;41.10;20.27;;;;;;;-0.26;78.09;99124.67;2254337;79;21427;-83
2021/11/25 00:51:39;;;;;;;28.67;18.60;;;;;;;-0.28;78.28;99115.13;2254626;79;21030;-83
2021/11/25 00:54:42;;;;;;;32.33;19.63;;;;;;;-0.28;78.57;99122.42;2254779;79;21019;-83
2021/11/25 00:57:43;;;;;;;34.80;18.60;;;;;;;-0.30;78.56;99111.58;2246461;78;21514;-83
2021/11/25 01:00:45;;;;;;;30.60;19.07;;;;;;;-0.29;78.54;99115.92;2241478;79;21328;-83
2021/11/25 01:03:45;;;;;;;33.17;19.10;;;;;;;-0.29;78.55;99113.35;2240956;79;21355;-83
2021/11/25 01:06:46;;;;;;;27.87;18.07;;;;;;;-0.34;78.15;99114.37;2240979;79;20976;-83
2021/11/25 01:09:47;;;;;;;30.37;18.60;;;;;;;-0.41;77.96;99109.28;2240783;79;21377;-83
2021/11/25 01:12:47;;;;;;;30.10;18.43;;;;;;;-0.47;78.00;99105.47;2241646;79;20960;-83
2021/11/25 01:15:50;;;;;;;29.37;18.40;;;;;;;-0.53;78.21;99096.13;2241308;79;20972;-84
2021/11/25 01:18:51;;;;;;;32.67;20.97;;;;;;;-0.57;78.47;99087.77;2241337;79;20936;-84
2021/11/25 01:21:51;;;;;;;30.57;19.33;;;;;;;-0.60;78.52;99096.17;2241203;79;20957;-83
2021/11/25 01:24:52;;;;;;;30.90;19.67;;;;;;;-0.63;78.58;99082.28;2241182;79;20968;-82
2021/11/25 01:27:52;;;;;;;31.40;19.03;;;;;;;-0.67;78.69;99083.38;2240966;79;21399;-83
2021/11/25 01:30:53;;;;;;;30.40;19.30;;;;;;;-0.71;78.61;99077.59;2240909;79;20952;-81
2021/11/25 01:33:53;;;;;;;33.57;21.23;;;;;;;-0.78;78.46;99075.84;2241007;79;20964;-82
2021/11/25 01:36:54;;;;;;;49.30;22.33;;;;;;;-0.83;78.53;99068.28;2240957;79;20980;-82
2021/11/25 01:39:55;;;;;;;38.20;22.33;;;;;;;-0.87;78.64;99063.73;2240918;79;20917;-83
2021/11/25 01:42:55;;;;;;;43.87;22.07;;;;;;;-0.89;79.08;99058.52;2240780;79;20976;-83
2021/11/25 01:45:56;;;;;;;46.07;26.37;;;;;;;-0.87;79.16;99049.64;2241018;79;20952;-83
2021/11/25 01:48:56;;;;;;;41.97;25.47;;;;;;;-0.88;79.35;99036.34;2240661;79;20909;-81
2021/11/25 01:51:57;;;;;;;49.10;27.90;;;;;;;-0.91;79.44;99037.04;2241192;79;21348;-83
2021/11/25 01:54:58;;;;;;;44.40;26.40;;;;;;;-0.92;79.69;99023.73;2241018;79;20996;-83
2021/11/25 01:57:59;;;;;;;44.07;26.97;;;;;;;-0.89;79.78;99029.05;2249260;79;21450;-82
2021/11/25 02:00:59;;;;;;;48.93;26.93;;;;;;;-0.84;80.03;99019.09;2254615;79;20920;-83
2021/11/25 02:04:00;;;;;;;42.77;25.77;;;;;;;-0.78;79.70;99019.46;2254587;79;20999;-83
2021/11/25 02:07:01;;;;;;;44.60;26.47;;;;;;;-0.81;79.47;99012.47;2254745;79;21431;-84
2021/11/25 02:10:02;;;;;;;44.87;26.30;;;;;;;-0.84;79.58;99008.45;2254531;79;20958;-84
2021/11/25 02:13:02;;;;;;;45.50;26.80;;;;;;;-0.89;79.77;99002.14;2254664;79;20980;-84
2021/11/25 02:16:03;;;;;;;49.23;28.47;;;;;;;-0.87;80.09;98999.27;2254848;79;20975;-85
2021/11/25 02:19:03;;;;;;;52.20;28.93;;;;;;;-0.84;80.45;98993.08;2254851;79;20917;-83
2021/11/25 02:22:04;;;;;;;53.53;30.83;;;;;;;-0.82;80.72;98990.20;2254905;79;21386;-83
2021/11/25 02:25:05;;;;;;;52.63;30.73;;;;;;;-0.78;80.99;98989.59;2254918;79;20924;-82
2021/11/25 02:28:05;;;;;;;50.77;28.47;;;;;;;-0.76;80.86;98984.16;2254562;79;20995;-83
2021/11/25 02:31:06;;;;;;;53.70;30.07;;;;;;;-0.75;80.89;98976.95;2254988;79;20988;-82
2021/11/25 02:34:07;;;;;;;89.73;31.27;;;;;;;-0.72;80.92;98973.28;2254715;79;20995;-83
2021/11/25 02:37:07;;;;;;;47.70;28.50;;;;;;;-0.73;81.01;98965.50;2254683;79;20935;-82
2021/11/25 02:40:08;;;;;;;50.77;30.00;;;;;;;-0.74;80.94;98962.05;2254036;79;20986;-82
2021/11/25 02:43:10;;;;;;;66.33;31.37;;;;;;;-0.75;81.01;98958.13;2254800;79;20987;-81
2021/11/25 02:46:11;;;;;;;47.90;28.87;;;;;;;-0.75;81.14;98957.73;2254398;79;21008;-81
2021/11/25 02:49:11;;;;;;;55.77;31.23;;;;;;;-0.70;81.39;98944.77;2253860;79;20995;-81
2021/11/25 02:52:12;;;;;;;52.80;31.27;;;;;;;-0.70;81.00;98942.21;2254250;79;20952;-82
2021/11/25 02:55:13;;;;;;;52.00;31.03;;;;;;;-0.73;81.13;98944.59;2254504;79;20956;-82
2021/11/25 02:58:13;;;;;;;53.17;31.43;;;;;;;-0.71;81.47;98936.59;2262350;78;21030;-83
2021/11/25 03:01:14;;;;;;;56.30;32.53;;;;;;;-0.72;81.15;98933.55;2268570;78;21347;-83
2021/11/25 03:04:14;;;;;;;54.93;31.97;;;;;;;-0.73;81.50;98929.22;2268751;78;20912;-82
2021/11/25 03:07:15;;;;;;;54.33;32.00;;;;;;;-0.73;81.31;98924.09;2268550;78;20947;-81
2021/11/25 03:10:15;;;;;;;58.33;32.07;;;;;;;-0.75;81.39;98923.12;2268664;78;21035;-81
2021/11/25 03:13:16;;;;;;;57.63;32.27;;;;;;;-0.76;81.37;98926.48;2268590;78;20944;-83
2021/11/25 03:16:16;;;;;;;71.30;34.23;;;;;;;-0.76;81.42;98922.63;2268508;78;20975;-82
2021/11/25 03:19:17;;;;;;;100.10;37.80;;;;;;;-0.77;81.81;98919.59;2267820;78;20975;-80
2021/11/25 03:22:17;;;;;;;64.60;35.50;;;;;;;-0.75;81.79;98923.12;2268602;78;20916;-83
2021/11/25 03:25:18;;;;;;;60.40;36.60;;;;;;;-0.74;81.87;98912.07;2267904;78;20912;-82
2021/11/25 03:28:18;;;;;;;66.87;36.60;;;;;;;-0.74;82.14;98912.07;2268521;78;21418;-82
2021/11/25 03:31:19;;;;;;;136.50;40.63;;;;;;;-0.75;82.15;98915.43;2268621;78;20995;-83
2021/11/25 03:34:19;;;;;;;60.60;34.83;;;;;;;-0.73;82.25;98911.27;2269193;78;20964;-82
2021/11/25 03:37:20;;;;;;;64.50;37.07;;;;;;;-0.75;82.12;98907.74;2269269;78;20963;-83
2021/11/25 03:40:21;;;;;;;69.57;38.33;;;;;;;-0.79;82.35;98902.36;2268617;78;21065;-82
2021/11/25 03:43:21;;;;;;;66.60;37.17;;;;;;;-0.80;82.40;98895.06;2269265;78;20920;-82
2021/11/25 03:46:22;;;;;;;69.07;39.70;;;;;;;-0.80;82.49;98888.66;2269176;78;21705;-82
2021/11/25 03:49:22;;;;;;;69.83;40.27;;;;;;;-0.79;82.41;98891.70;2268901;78;20975;-83
2021/11/25 03:52:23;;;;;;;69.73;39.80;;;;;;;-0.80;82.75;98886.09;2268368;78;20963;-81
2021/11/25 03:55:23;;;;;;;69.00;38.50;;;;;;;-0.85;82.74;98875.98;2268003;78;21335;-81
2021/11/25 03:58:24;;;;;;;75.27;38.27;;;;;;;-0.88;82.90;98870.65;2268082;78;21003;-80
2021/11/25 04:01:24;;;;;;;61.03;36.50;;;;;;;-0.91;82.75;98870.47;2269037;78;20959;-82
2021/11/25 04:04:31;;;;;;;69.23;36.83;;;;;;;-0.91;82.73;98868.31;2268755;78;21362;-82
2021/11/25 04:07:31;;;;;;;69.50;40.47;;;;;;;-0.92;83.32;98857.17;2268250;78;21740;-81
2021/11/25 04:10:32;;;;;;;69.93;38.33;;;;;;;-0.93;83.22;98851.56;2267941;78;20960;-82
2021/11/25 04:13:32;;;;;;;67.50;39.47;;;;;;;-0.92;83.17;98847.33;2268356;78;21745;-81
2021/11/25 04:16:33;;;;;;;76.70;40.40;;;;;;;-0.93;83.18;98845.56;2267400;78;20921;-82
2021/11/25 04:19:34;;;;;;;77.57;41.47;;;;;;;-0.94;83.20;98839.55;2267246;78;20983;-81
2021/11/25 04:22:34;;;;;;;69.07;40.57;;;;;;;-0.94;83.32;98826.73;2267608;78;20939;-81
2021/11/25 04:25:35;;;;;;;73.53;40.50;;;;;;;-0.96;83.43;98825.38;2268309;78;21363;-80
2021/11/25 04:28:35;;;;;;;103.17;58.60;;;;;;;-0.94;83.45;98822.02;2267717;78;21046;-81
2021/11/25 04:38:13;;;;;;;70.27;39.80;;;;;;;-0.99;83.45;98815.35;2268362;78;21324;-80
2021/11/25 04:41:14;;;;;;;73.33;38.97;;;;;;;-1.02;83.43;98807.09;2267971;78;20982;-80
2021/11/25 04:44:15;;;;;;;69.13;38.97;;;;;;;-0.99;83.92;98800.86;2267770;78;20963;-81
2021/11/25 04:47:15;;;;;;;71.57;40.27;;;;;;;-1.00;83.66;98794.38;2267383;78;20959;-81
2021/11/25 04:50:16;;;;;;;73.60;41.07;;;;;;;-0.98;83.58;98792.78;2267589;78;20955;-82
2021/11/25 04:53:16;;;;;;;83.70;43.37;;;;;;;-1.02;83.87;98793.00;2268472;78;21916;-81
2021/11/25 04:56:17;;;;;;;68.47;38.67;;;;;;;-1.06;83.68;98783.38;2267405;78;20904;-81
2021/11/25 04:59:17;;;;;;;85.83;39.90;;;;;;;-1.09;83.97;98779.37;2266243;78;21012;-82
2021/11/25 05:02:18;;;;;;;72.23;42.03;;;;;;;-1.08;84.96;98768.32;2267173;78;20943;-83
2021/11/25 05:05:19;;;;;;;73.17;38.37;;;;;;;-0.43;84.50;98755.68;2267294;78;21284;-82
2021/11/25 05:08:19;;;;;;;120.33;47.23;;;;;;;-0.57;86.12;98755.74;2266624;78;21047;-81
2021/11/25 05:11:20;;;;;;;76.70;41.30;;;;;;;-0.29;83.59;98747.43;2267624;78;20960;-81
2021/11/25 05:14:20;;;;;;;80.70;41.93;;;;;;;-0.51;82.97;98738.13;2267494;78;20988;-80
2021/11/25 05:17:21;;;;;;;73.27;41.77;;;;;;;-0.67;83.06;98741.16;2266759;78;20936;-82
2021/11/25 05:20:21;;;;;;;83.83;46.27;;;;;;;-0.82;83.41;98737.77;2267664;78;21331;-81
2021/11/25 05:23:22;;;;;;;83.07;44.93;;;;;;;-0.84;83.73;98733.35;2267473;78;20943;-81
2021/11/25 05:26:22;;;;;;;69.20;39.43;;;;;;;-0.91;83.59;98729.94;2265764;78;20943;-83
2021/11/25 05:29:23;;;;;;;80.67;43.90;;;;;;;-0.97;83.74;98730.48;2266255;78;21390;-82
2021/11/25 05:32:23;;;;;;;82.97;44.43;;;;;;;-1.01;83.77;98733.68;2267377;78;20942;-81
2021/11/25 05:35:24;;;;;;;79.07;41.30;;;;;;;-1.06;83.77;98730.86;2266797;78;20970;-82
2021/11/25 05:38:25;;;;;;;75.03;41.80;;;;;;;-1.08;83.84;98731.58;2266865;78;21002;-83
2021/11/25 05:41:25;;;;;;;72.07;42.00;;;;;;;-1.12;83.95;98724.52;2266800;78;21671;-81
2021/11/25 05:44:26;;;;;;;83.37;44.53;;;;;;;-1.15;84.06;98721.79;2266323;78;20971;-82
2021/11/25 05:47:26;;;;;;;77.93;41.77;;;;;;;-1.19;84.11;98717.30;2266594;78;20975;-81
2021/11/25 05:50:27;;;;;;;115.67;61.33;;;;;;;-1.19;84.11;98709.61;2266599;78;20943;-79
2021/11/25 05:53:27;;;;;;;95.97;49.17;;;;;;;-1.19;84.49;98709.61;2266480;78;21358;-80
2021/11/25 05:56:28;;;;;;;93.87;46.33;;;;;;;-1.21;84.22;98707.36;2267648;78;20960;-81
2021/11/25 05:59:29;;;;;;;81.30;43.33;;;;;;;-1.24;84.13;98695.67;2256061;78;21086;-81
2021/11/25 06:02:29;;;;;;;82.33;44.57;;;;;;;-1.23;84.43;98690.63;2254022;79;20967;-83
2021/11/25 06:05:30;;;;;;;82.80;46.97;;;;;;;-1.25;84.42;98697.75;2254236;79;20999;-82
2021/11/25 06:08:30;;;;;;;83.37;44.17;;;;;;;-1.25;84.40;98695.19;2254352;79;20988;-81
2021/11/25 06:11:31;;;;;;;76.67;43.10;;;;;;;-1.22;84.34;98695.36;2253770;79;20956;-81
2021/11/25 06:14:32;;;;;;;82.70;46.73;;;;;;;-1.22;84.27;98697.92;2255732;79;20976;-81
2021/11/25 06:17:35;;;;;;;87.17;46.63;;;;;;;-1.22;84.29;98698.80;2255331;79;20974;-81
2021/11/25 06:20:36;;;;;;;84.47;42.40;;;;;;;-1.18;84.28;98693.05;2254792;79;20999;-81
2021/11/25 06:23:36;;;;;;;89.53;43.70;;;;;;;-1.14;84.15;98692.42;2254234;79;20987;-81
2021/11/25 06:26:41;;;;;;;78.60;42.70;;;;;;;-1.12;84.11;98693.38;2255097;79;20944;-80
2021/11/25 06:29:39;;;;;;;78.90;42.53;;;;;;;-1.08;83.97;98689.31;2252127;79;20995;-82
2021/11/25 06:32:40;;;;;;;77.27;42.70;;;;;;;-1.10;83.82;98677.70;2253221;79;21007;-80
2021/11/25 06:35:46;;;;;;;114.47;41.80;;;;;;;-1.09;83.73;98678.18;2253224;79;20932;-81
2021/11/25 06:38:47;;;;;;;81.53;42.77;;;;;;;-1.09;83.94;98674.73;2254552;79;20924;-82
2021/11/25 06:41:48;;;;;;;75.57;43.77;;;;;;;-1.10;83.73;98681.94;2254001;79;20943;-81
2021/11/25 06:44:48;;;;;;;90.47;43.30;;;;;;;-1.06;83.75;98685.15;2252962;79;20928;-81
2021/11/25 06:47:49;;;;;;;74.73;41.83;;;;;;;-1.02;83.80;98679.39;2252772;79;21011;-80
2021/11/25 06:50:49;;;;;;;93.63;43.20;;;;;;;-0.99;83.60;98674.44;2252915;79;20932;-80
2021/11/25 06:53:50;;;;;;;78.40;43.17;;;;;;;-0.97;83.51;98665.16;2253576;79;21755;-82
2021/11/25 06:56:50;;;;;;;73.67;41.57;;;;;;;-0.96;83.50;98664.35;2252178;79;20963;-81
2021/11/25 06:59:51;;;;;;;77.07;40.83;;;;;;;-0.94;83.47;98661.47;2263689;78;21007;-81
2021/11/25 07:02:53;;;;;;;70.27;40.73;;;;;;;-0.92;83.32;98661.16;2265989;78;20943;-82
2021/11/25 07:05:54;;;;;;;66.17;40.07;;;;;;;-0.89;83.50;98657.47;2267923;78;21403;-82
2021/11/25 07:08:54;;;;;;;67.63;39.40;;;;;;;-0.84;83.39;98662.48;2266522;78;20927;-81
2021/11/25 07:11:55;;;;;;;72.87;41.43;;;;;;;-0.77;83.36;98662.00;2266742;78;21346;-81
2021/11/25 07:14:56;;;;;;;207.00;48.57;;;;;;;-0.68;83.22;98659.92;2267154;78;20947;-84
2021/11/25 07:17:56;;;;;;;71.17;42.63;;;;;;;-0.62;83.05;98661.92;2267870;78;20939;-81
2021/11/25 07:20:58;;;;;;;73.10;40.80;;;;;;;-0.51;83.04;98658.64;2266989;78;21390;-80
2021/11/25 07:23:59;;;;;;;70.53;40.33;;;;;;;-0.43;82.83;98653.50;2267499;78;20971;-83
2021/11/25 07:26:59;;;;;;;74.63;43.17;;;;;;;-0.38;82.69;98649.50;2267310;78;20983;-83
2021/11/25 07:30:00;;;;;;;72.67;41.30;;;;;;;-0.34;82.54;98647.56;2267339;78;21311;-82
2021/11/25 07:33:01;;;;;;;67.23;40.50;;;;;;;-0.28;82.43;98651.72;2266720;78;21031;-83
2021/11/25 07:36:01;;;;;;;78.87;43.90;;;;;;;-0.22;82.35;98645.63;2267679;78;20959;-82
2021/11/25 07:39:02;;;;;;;143.60;48.20;;;;;;;-0.18;82.37;98643.69;2267305;78;21409;-82
2021/11/25 07:42:02;;;;;;;73.70;41.40;;;;;;;-0.11;82.27;98645.76;2267544;78;20948;-82
2021/11/25 07:45:03;;;;;;;73.20;42.93;;;;;;;-0.02;82.30;98633.79;2267251;78;20987;-81
2021/11/25 07:48:04;;;;;;;65.23;40.13;;;;;;;0.07;82.23;98635.97;2267472;78;20947;-82
2021/11/25 07:51:04;;;;;;;114.20;43.97;;;;;;;0.13;82.06;98634.98;2268107;78;21031;-83
2021/11/25 07:54:08;;;;;;;69.37;40.30;;;;;;;0.34;83.09;98631.30;2268387;78;20955;-83
2021/11/25 07:57:08;;;;;;;70.43;42.10;;;;;;;0.42;81.85;98636.39;2265963;78;21043;-82
2021/11/25 08:00:08;;;;;;;69.53;41.50;;;;;;;0.45;81.50;98629.72;2251164;78;21471;-84
2021/11/25 08:03:09;;;;;;;71.37;40.57;;;;;;;0.47;81.44;98621.68;2247720;79;20967;-83
2021/11/25 08:06:09;;;;;;;72.30;41.90;;;;;;;0.54;81.34;98624.14;2245778;79;20944;-82
2021/11/25 08:09:11;;;;;;;68.90;42.37;;;;;;;0.51;81.09;98612.03;2246263;79;21323;-81
2021/11/25 08:12:11;;;;;;;274.07;52.27;;;;;;;0.54;81.19;98616.02;2247086;79;20921;-80
2021/11/25 08:15:12;;;;;;;74.33;42.50;;;;;;;0.61;81.20;98603.06;2248233;79;21014;-79
2021/11/25 08:18:12;;;;;;;237.97;48.97;;;;;;;0.70;81.40;98598.35;2246331;79;20983;-79
2021/11/25 08:21:13;;;;;;;72.40;42.07;;;;;;;0.82;81.29;98600.61;2245629;79;20940;-82
2021/11/25 08:24:13;;;;;;;72.43;41.43;;;;;;;0.97;80.86;98603.03;2245190;79;21351;-81
2021/11/25 08:27:14;;;;;;;70.40;41.30;;;;;;;1.09;80.79;98595.46;2246734;79;20905;-83
2021/11/25 08:30:15;;;;;;;112.37;42.57;;;;;;;1.21;80.50;98595.12;2246307;79;20948;-83
2021/11/25 08:33:16;;;;;;;77.50;44.03;;;;;;;1.31;80.12;98598.98;2246637;79;20936;-81
2021/11/25 08:36:17;;;;;;;68.93;41.33;;;;;;;1.43;80.09;98595.66;2246243;79;21362;-81
2021/11/25 08:39:17;;;;;;;72.60;41.93;;;;;;;1.50;79.34;98601.14;2247738;79;20932;-79
2021/11/25 08:42:18;;;;;;;118.80;46.07;;;;;;;1.60;79.38;98597.27;2246991;79;20925;-81
2021/11/25 08:45:18;;;;;;;73.63;46.60;;;;;;;1.68;79.42;98600.17;2247219;79;20932;-78
2021/11/25 08:48:19;;;;;;;79.87;45.70;;;;;;;1.84;79.22;98603.48;2246641;79;20972;-82
2021/11/25 08:51:19;;;;;;;67.00;39.33;;;;;;;1.94;78.76;98593.57;2246598;79;20952;-83
2021/11/25 08:54:21;;;;;;;75.37;45.50;;;;;;;1.96;78.16;98590.25;2246260;79;20996;-81
2021/11/25 08:57:22;;;;;;;99.07;48.03;;;;;;;1.87;77.95;98582.14;2245825;79;21011;-82
2021/11/25 09:00:23;;;;;;;79.43;47.73;;;;;;;1.95;78.33;98585.91;2260843;78;22047;-82
2021/11/25 09:03:24;;;;;;;74.53;44.10;;;;;;;2.09;78.27;98596.78;2266037;78;20991;-81
2021/11/25 09:06:24;;;;;;;70.77;41.57;;;;;;;2.22;78.05;98588.73;2265692;78;20963;-79
2021/11/25 09:09:25;;;;;;;68.43;42.90;;;;;;;2.33;77.64;98577.16;2266218;78;20974;-81
2021/11/25 09:12:26;;;;;;;84.73;43.83;;;;;;;2.43;77.56;98568.10;2265153;78;21323;-81
2021/11/25 09:15:26;;;;;;;73.47;43.13;;;;;;;2.46;76.96;98557.91;2265285;78;20969;-81
2021/11/25 09:18:27;;;;;;;73.93;40.87;;;;;;;2.47;76.79;98556.69;2265518;78;20979;-82
2021/11/25 09:21:29;;;;;;;65.77;41.13;;;;;;;2.50;76.61;98560.67;2265976;78;20947;-81
2021/11/25 09:24:29;;;;;;;66.07;42.13;;;;;;;2.55;76.65;98553.99;2266277;78;20975;-81
2021/11/25 09:27:30;;;;;;;61.40;38.40;;;;;;;2.66;76.76;98553.56;2267516;78;20924;-83
2021/11/25 09:30:31;;;;;;;66.30;40.30;;;;;;;2.70;76.46;98547.29;2235405;78;20950;-80
2021/11/25 09:33:31;;;;;;;70.67;43.70;;;;;;;2.74;76.30;98538.85;2266440;78;20936;-82
2021/11/25 09:36:32;;;;;;;66.57;41.37;;;;;;;2.80;75.97;98535.22;2266500;78;20919;-80
2021/11/25 09:39:32;;;;;;;60.30;38.67;;;;;;;2.92;76.26;98535.20;2266891;78;20963;-81
2021/11/25 09:42:33;;;;;;;71.00;39.43;;;;;;;3.00;75.89;98526.05;2267632;78;20983;-83
2021/11/25 09:45:33;;;;;;;66.47;39.47;;;;;;;3.05;75.65;98521.52;2267336;78;20916;-81
2021/11/25 09:48:34;;;;;;;63.00;38.27;;;;;;;3.13;75.54;98514.06;2266187;78;20987;-80
2021/11/25 09:51:35;;;;;;;63.70;40.23;;;;;;;3.23;75.48;98517.84;2267560;78;20919;-79
2021/11/25 09:54:35;;;;;;;76.37;39.47;;;;;;;3.33;75.48;98518.62;2266956;78;20995;-81
2021/11/25 09:57:36;;;;;;;60.17;37.03;;;;;;;3.43;75.18;98503.93;2266388;78;21417;-81
2021/11/25 10:00:36;;;;;;;63.63;39.07;;;;;;;3.48;74.70;98498.13;2245777;78;21044;-83
2021/11/25 10:03:37;;;;;;;60.53;37.20;;;;;;;3.58;74.72;98503.61;2238065;79;20987;-80
2021/11/25 10:06:37;;;;;;;56.23;34.97;;;;;;;3.65;74.32;98497.41;2238744;79;20952;-81
2021/11/25 10:09:38;;;;;;;61.87;40.80;;;;;;;3.66;73.53;98487.55;2238452;79;21644;-79
2021/11/25 10:12:38;;;;;;;68.00;39.97;;;;;;;3.66;73.32;98482.38;2238710;79;21047;-81
2021/11/25 10:15:39;;;;;;;65.60;38.00;;;;;;;3.71;73.96;98482.13;2216772;79;20984;-81
2021/11/25 10:18:40;;;;;;;64.93;37.63;;;;;;;3.79;73.96;98468.17;2238288;79;21415;-81
2021/11/25 10:21:40;;;;;;;57.60;36.30;;;;;;;3.91;73.66;98459.95;2238469;79;20964;-80
2021/11/25 10:24:41;;;;;;;61.23;37.20;;;;;;;3.98;73.29;98465.35;2238500;79;20976;-81
2021/11/25 10:27:42;;;;;;;55.87;36.80;;;;;;;4.03;73.21;98452.17;2237861;79;21007;-80
2021/11/25 10:30:42;;;;;;;58.30;36.27;;;;;;;4.10;72.94;98448.06;2238203;79;21034;-81
2021/11/25 10:33:51;;;;;;;82.03;40.33;;;;;;;4.11;72.99;98441.66;2238650;79;20967;-79
2021/11/25 10:36:56;;;;;;;68.33;38.40;;;;;;;4.14;72.72;98426.25;2238914;79;20952;-81
2021/11/25 10:40:18;;;;;;;55.73;35.37;;;;;;;4.22;72.68;98422.61;2238394;79;20924;-82
2021/11/25 10:42:59;;;;;;;58.90;36.53;;;;;;;4.26;72.40;98419.70;2235538;79;20948;-82
2021/11/25 10:45:59;;;;;;;219.73;46.23;;;;;;;4.29;72.28;98410.75;2238964;79;20960;-81
2021/11/25 10:49:00;;;;;;;72.17;37.63;;;;;;;4.37;72.54;98405.42;2238632;79;20944;-81
2021/11/25 10:52:01;;;;;;;76.33;36.17;;;;;;;4.46;72.02;98405.27;2238503;79;20972;-83
2021/11/25 10:55:02;;;;;;;67.00;37.40;;;;;;;4.50;71.83;98404.06;2239770;79;20905;-80
2021/11/25 10:58:02;;;;;;;84.70;39.30;;;;;;;4.53;71.32;98397.69;2239817;79;20983;-80
2021/11/25 11:01:03;;;;;;;93.37;37.90;;;;;;;4.60;71.31;98397.03;2202028;79;21044;-81
2021/11/25 11:04:05;;;;;;;55.23;36.07;;;;;;;4.64;70.60;98385.52;2170904;81;20999;-81
2021/11/25 11:07:06;;;;;;;58.33;36.17;;;;;;;4.64;70.73;98385.52;2192484;81;20933;-80
2021/11/25 11:10:06;;;;;;;58.40;35.67;;;;;;;4.69;70.87;98384.36;2192592;81;21373;-80
2021/11/25 11:19:24;;;;;;;72.27;39.27;;;;;;;4.89;69.86;98355.16;2171163;81;20948;-80
2021/11/25 11:22:25;;;;;;;59.97;31.87;;;;;;;4.93;70.12;98347.94;2192418;81;20989;-81
2021/11/25 11:25:25;;;;;;;47.27;29.77;;;;;;;4.93;69.13;98333.30;2192147;81;20988;-78
2021/11/25 11:28:27;;;;;;;47.10;30.87;;;;;;;4.95;68.52;98331.62;2191831;81;21380;-81
2021/11/25 11:31:28;;;;;;;46.13;29.23;;;;;;;4.92;67.71;98327.66;2191085;81;21083;-80
2021/11/25 11:34:28;;;;;;;55.40;31.10;;;;;;;4.91;67.10;98327.62;2192025;81;20987;-81
2021/11/25 11:37:30;;;;;;;52.70;32.37;;;;;;;4.92;68.17;98316.02;2191381;81;20960;-80
2021/11/25 11:40:32;;;;;;;49.77;31.80;;;;;;;4.99;68.67;98306.29;2190693;81;21028;-80
2021/11/25 11:43:32;;;;;;;77.97;33.43;;;;;;;5.04;68.17;98303.40;2192580;81;21024;-82
2021/11/25 11:46:33;;;;;;;53.77;33.77;;;;;;;5.09;67.96;98295.75;2193111;81;21373;-81
2021/11/25 11:49:33;;;;;;;56.53;35.07;;;;;;;5.07;68.59;98297.01;2191123;81;20909;-81
2021/11/25 11:52:34;;;;;;;55.73;34.90;;;;;;;5.04;68.41;98289.17;2191996;81;20952;-79
2021/11/25 11:55:36;;;;;;;60.03;34.13;;;;;;;5.06;68.76;98270.68;2191057;81;20921;-81
2021/11/25 11:58:39;;;;;;;50.63;33.80;;;;;;;5.18;68.73;98264.05;2191865;81;21007;-80
2021/11/25 12:01:39;;;;;;;55.73;34.53;;;;;;;5.18;67.99;98259.75;2203031;79;21004;-79
2021/11/25 12:04:39;;;;;;;51.53;33.70;;;;;;;5.20;68.11;98257.20;2205034;81;20975;-82
2021/11/25 12:07:40;;;;;;;54.23;34.67;;;;;;;5.23;67.64;98250.84;2205185;81;20932;-79
2021/11/25 12:10:40;;;;;;;58.93;34.17;;;;;;;5.24;67.80;98264.23;2205128;81;20948;-81
2021/11/25 12:13:41;;;;;;;61.63;33.30;;;;;;;5.24;67.58;98255.17;2205222;81;20952;-78
2021/11/25 12:16:42;;;;;;;61.63;34.13;;;;;;;5.27;67.84;98264.30;2205100;81;21096;-78
2021/11/25 12:19:45;;;;;;;64.63;34.53;;;;;;;5.32;67.43;98259.69;2204176;81;20948;-80
2021/11/25 12:22:46;;;;;;;56.80;33.97;;;;;;;5.37;67.34;98246.43;2204759;81;20935;-82
2021/11/25 12:25:46;;;;;;;55.23;34.27;;;;;;;5.37;67.32;98239.09;2204817;81;20938;-81
2021/11/25 12:28:47;;;;;;;52.93;34.63;;;;;;;5.37;67.29;98247.73;2204981;81;20995;-81
2021/11/25 12:31:47;;;;;;;53.43;33.67;;;;;;;5.34;67.33;98248.08;2204820;81;21436;-81
2021/11/25 12:34:48;;;;;;;59.47;35.80;;;;;;;5.33;66.92;98240.73;2205846;81;20993;-80
2021/11/25 12:37:49;;;;;;;57.77;35.70;;;;;;;5.26;67.23;98233.67;2204920;81;20971;-78
2021/11/25 12:40:51;;;;;;;91.20;36.93;;;;;;;5.28;67.55;98223.35;2205823;81;20952;-82
2021/11/25 12:43:51;;;;;;;62.90;35.17;;;;;;;5.26;67.41;98224.61;2205516;81;20987;-80
2021/11/25 12:46:52;;;;;;;55.07;35.17;;;;;;;5.38;67.53;98216.25;2204871;81;20912;-79
2021/11/25 12:49:52;;;;;;;61.27;34.33;;;;;;;5.36;67.18;98220.52;2205103;81;21399;-80
2021/11/25 12:52:53;;;;;;;54.63;33.90;;;;;;;5.33;67.18;98205.80;2206247;81;20997;-79
2021/11/25 12:55:53;;;;;;;65.27;33.47;;;;;;;5.32;66.91;98211.81;2205938;81;20936;-82
2021/11/25 12:58:54;;;;;;;53.83;32.80;;;;;;;5.25;66.31;98202.58;2205532;81;20956;-80
2021/11/25 13:01:54;;;;;;;59.30;34.50;;;;;;;5.18;66.93;98200.24;2248289;79;21030;-82
2021/11/25 13:04:55;;;;;;;61.37;34.73;;;;;;;5.15;67.24;98201.47;2252228;79;20940;-81
2021/11/25 13:07:57;;;;;;;55.87;35.13;;;;;;;5.08;67.13;98198.28;2251823;79;20948;-82
2021/11/25 13:10:57;;;;;;;73.83;35.77;;;;;;;5.02;67.36;98195.55;2251615;79;21082;-79
2021/11/25 13:13:58;;;;;;;55.63;32.47;;;;;;;5.00;67.57;98195.52;2251666;79;20955;-81
2021/11/25 13:16:58;;;;;;;50.23;31.20;;;;;;;4.98;67.75;98198.49;2251127;79;20904;-81
2021/11/25 13:19:59;;;;;;;49.50;30.93;;;;;;;4.96;68.01;98179.90;2251155;79;21459;-81
2021/11/25 13:23:00;;;;;;;54.27;31.93;;;;;;;4.92;67.83;98174.20;2251313;79;20952;-81
2021/11/25 13:26:00;;;;;;;57.97;33.17;;;;;;;4.87;68.41;98177.09;2252227;79;20936;-80
2021/11/25 13:29:01;;;;;;;56.03;32.33;;;;;;;4.82;68.50;98173.11;2251651;79;20936;-79
2021/11/25 13:32:01;;;;;;;49.83;31.30;;;;;;;4.84;68.38;98165.39;2252110;79;20983;-81
2021/11/25 13:35:05;;;;;;;52.47;31.27;;;;;;;4.91;69.20;98153.05;2252436;79;20908;-80
2021/11/25 13:38:05;;;;;;;47.37;30.60;;;;;;;4.92;68.46;98149.63;2252570;79;21004;-83
2021/11/25 13:41:06;;;;;;;49.33;31.83;;;;;;;4.88;68.69;98143.94;2253136;79;20948;-83
2021/11/25 13:44:06;;;;;;;55.67;33.07;;;;;;;4.83;68.56;98129.61;2252627;79;20960;-81
2021/11/25 13:47:08;;;;;;;87.37;33.93;;;;;;;4.73;68.46;98123.77;2253561;79;21257;-79
2021/11/25 13:50:10;;;;;;;54.93;31.20;;;;;;;4.61;69.02;98114.02;2254159;79;20995;-81
2021/11/25 13:53:11;;;;;;;52.17;31.87;;;;;;;4.52;69.18;98116.39;2253357;79;20984;-77
2021/11/25 13:56:12;;;;;;;58.27;33.00;;;;;;;4.44;69.46;98116.63;2252665;79;20992;-81
2021/11/25 13:59:13;;;;;;;51.00;32.90;;;;;;;4.36;69.57;98120.31;2253085;79;21462;-82
2021/11/25 14:02:13;;;;;;;48.73;30.90;;;;;;;4.29;69.86;98110.63;2265180;78;21142;-82
2021/11/25 14:05:14;;;;;;;53.40;32.83;;;;;;;4.25;69.95;98113.97;2266216;78;20951;-82
2021/11/25 14:08:15;;;;;;;55.67;32.77;;;;;;;4.21;70.22;98118.61;2265917;78;21307;-83